KDIK

Dickinson - Theodore Roosevelt Regional Airport

Dickinson, North Dakota, USA
METAR KDIK 211256Z AUTO 24010KT 10SM CLR M21/M26 A3025 RMK AO2 SLP317 T12061256
Observed Flight Rules
Feb-21 @ 12:56 UTC (14 minutes ago) Visual Flight Rules
Wind Visibility Clouds
240° at 10 knots 10 miles
  • Clear skies
Temperatures Readings
Current -21°C / -6°F
Dewpoint -26°C / -15°F
Humidity 64%
Altimeter 30.25" Hg
Pressure 1031.7 hPa
Elevation 788
METAR KDIK 211256Z AUTO 24010KT 10SM CLR M21/M26 A3025 RMK AO2 SLP317 T12061256
Observed Flight Rules
Feb-21 @ 12:56 UTC
(14 minutes ago)
VFR
Wind Visibility
240° at 10 knots 10 miles
Clouds
  • Clear skies
Temperature Dewpoint
-21°C / -6°F -26°C / -15°F
Humidity Altimeter Pressure
64% 30.25" Hg 1031.7 hPa